Time,TemperatureF,DewpointF,PressureIn,WindDirection,WindDirectionDegrees,WindSpeedMPH,WindSpeedGustMPH,Humidity,HourlyPrecipIn,Conditions,Clouds,dailyrainin,SoftwareType,DateUTC
2013-09-13 02:00:00,50.0,-99.9,-100.00,North,-999,-999.0,-999.0,-999,-99.99,,,0.00,,2013-09-13 08:00:00,
2013-09-13 02:52:00,50.0,-99.9,-100.00,North,-999,-999.0,-999.0,-999,-99.99,,,0.00,,2013-09-13 08:52:00,
2013-09-13 03:00:00,50.0,-99.9,-100.00,North,360,0.0,0.0,-999,-99.99,,,0.00,,2013-09-13 09:00:00,
2013-09-13 03:54:00,50.0,-99.9,-100.00,North,360,0.0,0.0,-999,-99.99,,,0.00,,2013-09-13 09:54:00,
2013-09-13 04:00:00,50.0,-99.9,-100.00,North,360,0.0,0.0,-999,-99.99,,,0.01,,2013-09-13 10:00:00,
2013-09-13 04:53:00,50.0,-99.9,-100.00,North,360,0.0,0.0,-999,-99.99,,,0.01,,2013-09-13 10:53:00,
2013-09-13 05:00:00,49.0,-99.9,-100.00,North,0,0.0,0.0,-999,-99.99,,,0.01,,2013-09-13 11:00:00,
2013-09-13 05:52:00,49.0,-99.9,-100.00,North,0,0.0,0.0,-999,-99.99,,,0.01,,2013-09-13 11:52:00,
2013-09-13 06:00:00,49.0,-99.9,-100.00,North,0,0.0,0.0,-999,-99.99,,,0.01,,2013-09-13 12:00:00,
2013-09-13 06:52:00,49.0,-99.9,-100.00,North,0,0.0,0.0,-999,-99.99,,,0.01,,2013-09-13 12:52:00,
2013-09-13 08:00:00,49.0,-99.9,-100.00,North,0,0.0,0.0,-999,-99.99,,,0.01,,2013-09-13 14:00:00,
2013-09-13 08:52:00,49.0,-99.9,-100.00,North,0,0.0,0.0,-999,-99.99,,,0.01,,2013-09-13 14:52:00,
2013-09-13 09:00:00,51.0,-99.9,-100.00,North,0,0.0,0.0,-999,-99.99,,,0.01,,2013-09-13 15:00:00,
2013-09-13 09:54:00,51.0,-99.9,-100.00,North,0,0.0,0.0,-999,-99.99,,,0.01,,2013-09-13 15:54:00,
2013-09-13 10:00:00,54.0,-99.9,-100.00,North,0,0.0,0.0,-999,-99.99,,,0.01,,2013-09-13 16:00:00,
2013-09-13 10:54:00,54.0,-99.9,-100.00,North,0,0.0,0.0,-999,-99.99,,,0.01,,2013-09-13 16:54:00,
2013-09-13 11:00:00,55.0,-99.9,-100.00,North,0,0.0,5.0,-999,-99.99,,,0.01,,2013-09-13 17:00:00,
2013-09-13 11:53:00,55.0,-99.9,-100.00,North,0,0.0,5.0,-999,-99.99,,,0.01,,2013-09-13 17:53:00,
2013-09-13 13:00:00,60.0,-99.9,-100.00,North,0,2.0,6.0,-999,-99.99,,,0.01,,2013-09-13 19:00:00,
2013-09-13 13:52:00,60.0,-99.9,-100.00,North,0,2.0,6.0,-999,-99.99,,,0.01,,2013-09-13 19:52:00,
2013-09-13 14:00:00,59.0,-99.9,-100.00,North,0,3.0,9.0,-999,-99.99,,,0.01,,2013-09-13 20:00:00,
2013-09-13 14:52:00,59.0,-99.9,-100.00,North,0,3.0,9.0,-999,-99.99,,,0.01,,2013-09-13 20:52:00,
2013-09-13 15:00:00,61.0,-99.9,-100.00,North,-999,-999.0,-999.0,-999,-99.99,,,0.01,,2013-09-13 21:00:00,
2013-09-13 15:54:00,61.0,-99.9,-100.00,North,-999,-999.0,-999.0,-999,-99.99,,,0.01,,2013-09-13 21:54:00,
2013-09-13 17:00:00,61.0,-99.9,-100.00,North,0,3.0,7.0,-999,-99.99,,,0.01,,2013-09-13 23:00:00,
2013-09-13 17:53:00,61.0,-99.9,-100.00,North,0,3.0,7.0,-999,-99.99,,,0.01,,2013-09-13 23:53:00,
2013-09-13 20:00:00,51.0,-99.9,-100.00,North,-999,-999.0,-999.0,-999,-99.99,,,-99.99,,2013-09-14 02:00:00,
2013-09-13 20:52:00,51.0,-99.9,-100.00,North,-999,-999.0,-999.0,-999,-99.99,,,-99.99,,2013-09-14 02:52:00,
2013-09-13 21:00:00,49.0,-99.9,-100.00,North,-999,-999.0,-999.0,-999,-99.99,,,-99.99,,2013-09-14 03:00:00,
2013-09-13 21:55:00,49.0,-99.9,-100.00,North,-999,-999.0,-999.0,-999,-99.99,,,-99.99,,2013-09-14 03:55:00,
2013-09-13 22:00:00,45.0,-99.9,-100.00,North,0,0.0,0.0,-999,-99.99,,,-99.99,,2013-09-14 04:00:00,
2013-09-13 22:54:00,45.0,-99.9,-100.00,North,0,0.0,0.0,-999,-99.99,,,-99.99,,2013-09-14 04:54:00,
2013-09-13 23:00:00,45.0,-99.9,-100.00,North,-999,-999.0,-999.0,-999,-99.99,,,0.01,,2013-09-14 05:00:00,
2013-09-13 23:53:00,45.0,-99.9,-100.00,North,-999,-999.0,-999.0,-999,-99.99,,,0.01,,2013-09-14 05:53:00,